Aviation Digital Data Service (ADDS)

Output produced by METARs form (1641 UTC 16 June 2019)
found at http://www.aviationweather.gov/metar/data/
 
METAR text: DIAP 161630Z 23004KT 190V250 9999 FEW015 25/23 Q1013 NOSIG
Conditions at: DIAP (ABIDJAN/PORT BOU, CI) observed 1630 UTC 16 June 2019
Temperature: 25.0°C (77°F)
Dewpoint: 23.0°C (73°F) [RH = 89%]
Pressure (altimeter): 29.91 inches Hg (1013.0 mb)
Winds: from the SW (230 degrees) at 5 MPH (4 knots; 2.1 m/s)
Visibility: 6 or more miles (10+ km)
Ceiling: at least 12,000 feet AGL
Clouds: few clouds at 1500 feet AGL
Weather: no significant weather observed at this time

METAR text: DIAP 161600Z 24005KT 220V280 9999 FEW015 25/23 Q1013 NOSIG
Conditions at: DIAP (ABIDJAN/PORT BOU, CI) observed 1600 UTC 16 June 2019
Temperature: 25.0°C (77°F)
Dewpoint: 23.0°C (73°F) [RH = 89%]
Pressure (altimeter): 29.91 inches Hg (1013.0 mb)
Winds: from the WSW (240 degrees) at 6 MPH (5 knots; 2.6 m/s)
Visibility: 6 or more miles (10+ km)
Ceiling: at least 12,000 feet AGL
Clouds: few clouds at 1500 feet AGL
Weather: no significant weather observed at this time

METAR text: DIAP 161530Z 27005KT 230V290 9999 FEW015 25/24 Q1014 NOSIG
Conditions at: DIAP (ABIDJAN/PORT BOU, CI) observed 1530 UTC 16 June 2019
Temperature: 25.0°C (77°F)
Dewpoint: 24.0°C (75°F) [RH = 94%]
Pressure (altimeter): 29.94 inches Hg (1014.0 mb)
Winds: from the W (270 degrees) at 6 MPH (5 knots; 2.6 m/s)
Visibility: 6 or more miles (10+ km)
Ceiling: at least 12,000 feet AGL
Clouds: few clouds at 1500 feet AGL
Weather: no significant weather observed at this time

METAR text: DIAP 161500Z 26005KT 220V310 9999 SCT015 25/24 Q1014 NOSIG
Conditions at: DIAP (ABIDJAN/PORT BOU, CI) observed 1500 UTC 16 June 2019
Temperature: 25.0°C (77°F)
Dewpoint: 24.0°C (75°F) [RH = 94%]
Pressure (altimeter): 29.94 inches Hg (1014.0 mb)
Winds: from the W (260 degrees) at 6 MPH (5 knots; 2.6 m/s)
Visibility: 6 or more miles (10+ km)
Ceiling: at least 12,000 feet AGL
Clouds: scattered clouds at 1500 feet AGL
Weather: no significant weather observed at this time

METAR text: DIAP 161430Z 25006KT 7000 -RA FEW005 SCT020 24/24 Q1015 NOSIG
Conditions at: DIAP (ABIDJAN/PORT BOU, CI) observed 1430 UTC 16 June 2019
Temperature: 24.0°C (75°F)
Dewpoint: 24.0°C (75°F) [RH = 100%]
Pressure (altimeter): 29.97 inches Hg (1015.0 mb)
Winds: from the WSW (250 degrees) at 7 MPH (6 knots; 3.1 m/s)
Visibility: 4 miles ( 7 km)
Ceiling: at least 12,000 feet AGL
Clouds: few clouds at 500 feet AGL
scattered clouds at 2000 feet AGL
Weather: -RA  (light rain)

METAR text: DIAP 161400Z 26006KT 7000 -RA FEW004 SCT020 BKN045 24/24 Q1015 NOSIG
Conditions at: DIAP (ABIDJAN/PORT BOU, CI) observed 1400 UTC 16 June 2019
Temperature: 24.0°C (75°F)
Dewpoint: 24.0°C (75°F) [RH = 100%]
Pressure (altimeter): 29.97 inches Hg (1015.0 mb)
Winds: from the W (260 degrees) at 7 MPH (6 knots; 3.1 m/s)
Visibility: 4 miles ( 7 km)
Ceiling: 4500 feet AGL
Clouds: few clouds at 400 feet AGL
scattered clouds at 2000 feet AGL
broken clouds at 4500 feet AGL
Weather: -RA  (light rain)

METAR text: DIAP 161330Z 25007KT 6000 -RA FEW004 SCT010 OVC020 24/24 Q1015 RETS TEMPO 4000 RA
Conditions at: DIAP (ABIDJAN/PORT BOU, CI) observed 1330 UTC 16 June 2019
Temperature: 24.0°C (75°F)
Dewpoint: 24.0°C (75°F) [RH = 100%]
Pressure (altimeter): 29.97 inches Hg (1015.0 mb)
Winds: from the WSW (250 degrees) at 8 MPH (7 knots; 3.6 m/s)
Visibility: 4 miles ( 6 km)
Ceiling: 2000 feet AGL
Clouds: few clouds at 400 feet AGL
scattered clouds at 1000 feet AGL
overcast cloud deck at 2000 feet AGL
Weather: -RA  (light rain)

METAR text: DIAP 161300Z 23005KT 6000 -RA SCT004 OVC020 24/24 Q1015 RETS TEMPO 4000 RA
Conditions at: DIAP (ABIDJAN/PORT BOU, CI) observed 1300 UTC 16 June 2019
Temperature: 24.0°C (75°F)
Dewpoint: 24.0°C (75°F) [RH = 100%]
Pressure (altimeter): 29.97 inches Hg (1015.0 mb)
Winds: from the SW (230 degrees) at 6 MPH (5 knots; 2.6 m/s)
Visibility: 4 miles ( 6 km)
Ceiling: 2000 feet AGL
Clouds: scattered clouds at 400 feet AGL
overcast cloud deck at 2000 feet AGL
Weather: -RA  (light rain)

METAR text: DIAP 161230Z 19004KT 6000 -TSRA SCT008 FEW015CB OVC030 24/24 Q1016 TEMPO 4000 TSRA
Conditions at: DIAP (ABIDJAN/PORT BOU, CI) observed 1230 UTC 16 June 2019
Temperature: 24.0°C (75°F)
Dewpoint: 24.0°C (75°F) [RH = 100%]
Pressure (altimeter): 30.00 inches Hg (1016.0 mb)
Winds: from the S (190 degrees) at 5 MPH (4 knots; 2.1 m/s)
Visibility: 4 miles ( 6 km)
Ceiling: 3000 feet AGL
Clouds: scattered clouds at 800 feet AGL
few clouds at 1500 feet AGL
overcast cloud deck at 3000 feet AGL
Weather: -TSRA  (light rain associated with thunderstorm(s))

METAR text: DIAP 161200Z 19004KT 6000 -TSRA FEW013 FEW015CB OVC040 24/24 Q1016 TEMPO 4000 TSRA
Conditions at: DIAP (ABIDJAN/PORT BOU, CI) observed 1200 UTC 16 June 2019
Temperature: 24.0°C (75°F)
Dewpoint: 24.0°C (75°F) [RH = 100%]
Pressure (altimeter): 30.00 inches Hg (1016.0 mb)
Winds: from the S (190 degrees) at 5 MPH (4 knots; 2.1 m/s)
Visibility: 4 miles ( 6 km)
Ceiling: 4000 feet AGL
Clouds: few clouds at 1300 feet AGL
few clouds at 1500 feet AGL
overcast cloud deck at 4000 feet AGL
Weather: -TSRA  (light rain associated with thunderstorm(s))

METAR text: DIAP 161130Z 08005KT 060V120 3300 -TSRA FEW013 FEW015CB OVC025 23/22 Q1016 RERA TEMPO 2300 TSRA
Conditions at: DIAP (ABIDJAN/PORT BOU, CI) observed 1130 UTC 16 June 2019
Temperature: 23.0°C (73°F)
Dewpoint: 22.0°C (72°F) [RH = 94%]
Pressure (altimeter): 30.00 inches Hg (1016.0 mb)
Winds: from the E (80 degrees) at 6 MPH (5 knots; 2.6 m/s)
Visibility: 2.05 miles (3.30 km)
Ceiling: 2500 feet AGL
Clouds: few clouds at 1300 feet AGL
few clouds at 1500 feet AGL
overcast cloud deck at 2500 feet AGL
Weather: -TSRA  (light rain associated with thunderstorm(s))

METAR text: DIAP 161100Z 11011KT 1600 TSRA FEW010 SCT015CB OVC025 22/22 Q1016 TEMPO 1400 +TSRA
Conditions at: DIAP (ABIDJAN/PORT BOU, CI) observed 1100 UTC 16 June 2019
Temperature: 22.0°C (72°F)
Dewpoint: 22.0°C (72°F) [RH = 100%]
Pressure (altimeter): 30.00 inches Hg (1016.0 mb)
Winds: from the ESE (110 degrees) at 13 MPH (11 knots; 5.7 m/s)
Visibility: 0.99 miles (1.59 km)
Ceiling: 2500 feet AGL
Clouds: few clouds at 1000 feet AGL
scattered clouds at 1500 feet AGL
overcast cloud deck at 2500 feet AGL
Weather: TSRA  (rain associated with thunderstorm(s))

METAR text: DIAP 161030Z 15004KT 110V220 6000 -RA BKN010 SCT015CB OVC030 26/25 Q1016 TEMPO 3000 TSRA
Conditions at: DIAP (ABIDJAN/PORT BOU, CI) observed 1030 UTC 16 June 2019
Temperature: 26.0°C (79°F)
Dewpoint: 25.0°C (77°F) [RH = 94%]
Pressure (altimeter): 30.00 inches Hg (1016.0 mb)
Winds: from the SSE (150 degrees) at 5 MPH (4 knots; 2.1 m/s)
Visibility: 4 miles ( 6 km)
Ceiling: 1000 feet AGL
Clouds: broken clouds at 1000 feet AGL
scattered clouds at 1500 feet AGL
overcast cloud deck at 3000 feet AGL
Weather: -RA  (light rain)

METAR text: DIAP 161000Z 28003KT 6000 -RA SCT013 FEW020CB BKN030 26/25 Q1016 TEMPO 3000 RA
Conditions at: DIAP (ABIDJAN/PORT BOU, CI) observed 1000 UTC 16 June 2019
Temperature: 26.0°C (79°F)
Dewpoint: 25.0°C (77°F) [RH = 94%]
Pressure (altimeter): 30.00 inches Hg (1016.0 mb)
Winds: from the W (280 degrees) at 3 MPH (3 knots; 1.5 m/s)
Visibility: 4 miles ( 6 km)
Ceiling: 3000 feet AGL
Clouds: scattered clouds at 1300 feet AGL
few clouds at 2000 feet AGL
broken clouds at 3000 feet AGL
Weather: -RA  (light rain)

METAR text: DIAP 160930Z 27003KT 230V320 6000 -RA FEW013 FEW020CB BKN040 26/25 Q1016 TEMPO 3000 RA
Conditions at: DIAP (ABIDJAN/PORT BOU, CI) observed 0930 UTC 16 June 2019
Temperature: 26.0°C (79°F)
Dewpoint: 25.0°C (77°F) [RH = 94%]
Pressure (altimeter): 30.00 inches Hg (1016.0 mb)
Winds: from the W (270 degrees) at 3 MPH (3 knots; 1.5 m/s)
Visibility: 4 miles ( 6 km)
Ceiling: 4000 feet AGL
Clouds: few clouds at 1300 feet AGL
few clouds at 2000 feet AGL
broken clouds at 4000 feet AGL
Weather: -RA  (light rain)

METAR text: DIAP 160900Z 32005KT 6000 -RA FEW013 FEW020CB OVC040 26/24 Q1015 RETS TEMPO 3000 RA
Conditions at: DIAP (ABIDJAN/PORT BOU, CI) observed 0900 UTC 16 June 2019
Temperature: 26.0°C (79°F)
Dewpoint: 24.0°C (75°F) [RH = 89%]
Pressure (altimeter): 29.97 inches Hg (1015.0 mb)
Winds: from the NW (320 degrees) at 6 MPH (5 knots; 2.6 m/s)
Visibility: 4 miles ( 6 km)
Ceiling: 4000 feet AGL
Clouds: few clouds at 1300 feet AGL
few clouds at 2000 feet AGL
overcast cloud deck at 4000 feet AGL
Weather: -RA  (light rain)

METAR text: DIAP 160830Z 30003KT 270V330 6000 TS SCT013 FEW020CB OVC040 26/24 Q1015 TEMPO 3000 TSRA
Conditions at: DIAP (ABIDJAN/PORT BOU, CI) observed 0830 UTC 16 June 2019
Temperature: 26.0°C (79°F)
Dewpoint: 24.0°C (75°F) [RH = 89%]
Pressure (altimeter): 29.97 inches Hg (1015.0 mb)
Winds: from the WNW (300 degrees) at 3 MPH (3 knots; 1.5 m/s)
Visibility: 4 miles ( 6 km)
Ceiling: 4000 feet AGL
Clouds: scattered clouds at 1300 feet AGL
few clouds at 2000 feet AGL
overcast cloud deck at 4000 feet AGL
Weather: TS  (thunderstorm)

METAR text: DIAP 160800Z 31004KT 6000 TS SCT013 FEW020CB OVC040 26/24 Q1015 TEMPO 3000 TSRA
Conditions at: DIAP (ABIDJAN/PORT BOU, CI) observed 0800 UTC 16 June 2019
Temperature: 26.0°C (79°F)
Dewpoint: 24.0°C (75°F) [RH = 89%]
Pressure (altimeter): 29.97 inches Hg (1015.0 mb)
Winds: from the NW (310 degrees) at 5 MPH (4 knots; 2.1 m/s)
Visibility: 4 miles ( 6 km)
Ceiling: 4000 feet AGL
Clouds: scattered clouds at 1300 feet AGL
few clouds at 2000 feet AGL
overcast cloud deck at 4000 feet AGL
Weather: TS  (thunderstorm)

METAR text: DIAP 160730Z VRB04KT 7000 TS FEW013 FEW020CB 26/24 Q1015 NOSIG
Conditions at: DIAP (ABIDJAN/PORT BOU, CI) observed 0730 UTC 16 June 2019
Temperature: 26.0°C (79°F)
Dewpoint: 24.0°C (75°F) [RH = 89%]
Pressure (altimeter): 29.97 inches Hg (1015.0 mb)
Winds: variable direction winds at 5 MPH (4 knots; 2.1 m/s)
Visibility: 4 miles ( 7 km)
Ceiling: at least 12,000 feet AGL
Clouds: few clouds at 1300 feet AGL
few clouds at 2000 feet AGL
Weather: TS  (thunderstorm)

METAR text: DIAP 160700Z 30004KT 270V330 7000 TS FEW013 FEW020CB 26/24 Q1014 NOSIG
Conditions at: DIAP (ABIDJAN/PORT BOU, CI) observed 0700 UTC 16 June 2019
Temperature: 26.0°C (79°F)
Dewpoint: 24.0°C (75°F) [RH = 89%]
Pressure (altimeter): 29.94 inches Hg (1014.0 mb)
Winds: from the WNW (300 degrees) at 5 MPH (4 knots; 2.1 m/s)
Visibility: 4 miles ( 7 km)
Ceiling: at least 12,000 feet AGL
Clouds: few clouds at 1300 feet AGL
few clouds at 2000 feet AGL
Weather: TS  (thunderstorm)

METAR text: DIAP 160630Z 31005KT 280V340 8000 TS FEW012 FEW020CB SCT023 26/24 Q1014 NOSIG
Conditions at: DIAP (ABIDJAN/PORT BOU, CI) observed 0630 UTC 16 June 2019
Temperature: 26.0°C (79°F)
Dewpoint: 24.0°C (75°F) [RH = 89%]
Pressure (altimeter): 29.94 inches Hg (1014.0 mb)
Winds: from the NW (310 degrees) at 6 MPH (5 knots; 2.6 m/s)
Visibility: 5 miles ( 8 km)
Ceiling: at least 12,000 feet AGL
Clouds: few clouds at 1200 feet AGL
few clouds at 2000 feet AGL
scattered clouds at 2300 feet AGL
Weather: TS  (thunderstorm)

METAR text: DIAP 160600Z 29005KT 8000 FEW012 BKN019 FEW020CB 26/24 Q1014 NOSIG
Conditions at: DIAP (ABIDJAN/PORT BOU, CI) observed 0600 UTC 16 June 2019
Temperature: 26.0°C (79°F)
Dewpoint: 24.0°C (75°F) [RH = 89%]
Pressure (altimeter): 29.94 inches Hg (1014.0 mb)
Winds: from the WNW (290 degrees) at 6 MPH (5 knots; 2.6 m/s)
Visibility: 5 miles ( 8 km)
Ceiling: 1900 feet AGL
Clouds: few clouds at 1200 feet AGL
broken clouds at 1900 feet AGL
few clouds at 2000 feet AGL
Weather: no significant weather observed at this time

METAR text: DIAP 160530Z 31005KT 9000 TS FEW014 FEW020CB BKN030 26/24 Q1013 NOSIG
Conditions at: DIAP (ABIDJAN/PORT BOU, CI) observed 0530 UTC 16 June 2019
Temperature: 26.0°C (79°F)
Dewpoint: 24.0°C (75°F) [RH = 89%]
Pressure (altimeter): 29.91 inches Hg (1013.0 mb)
Winds: from the NW (310 degrees) at 6 MPH (5 knots; 2.6 m/s)
Visibility: 6 miles ( 9 km)
Ceiling: 3000 feet AGL
Clouds: few clouds at 1400 feet AGL
few clouds at 2000 feet AGL
broken clouds at 3000 feet AGL
Weather: TS  (thunderstorm)

METAR text: DIAP 160500Z 30004KT 280V340 9000 TS FEW014 FEW020CB SCT030 26/24 Q1013 NOSIG
Conditions at: DIAP (ABIDJAN/PORT BOU, CI) observed 0500 UTC 16 June 2019
Temperature: 26.0°C (79°F)
Dewpoint: 24.0°C (75°F) [RH = 89%]
Pressure (altimeter): 29.91 inches Hg (1013.0 mb)
Winds: from the WNW (300 degrees) at 5 MPH (4 knots; 2.1 m/s)
Visibility: 6 miles ( 9 km)
Ceiling: at least 12,000 feet AGL
Clouds: few clouds at 1400 feet AGL
few clouds at 2000 feet AGL
scattered clouds at 3000 feet AGL
Weather: TS  (thunderstorm)

METAR text: DIAP 160430Z 30005KT 9000 TS FEW014 FEW020CB BKN043 26/24 Q1013 NOSIG
Conditions at: DIAP (ABIDJAN/PORT BOU, CI) observed 0430 UTC 16 June 2019
Temperature: 26.0°C (79°F)
Dewpoint: 24.0°C (75°F) [RH = 89%]
Pressure (altimeter): 29.91 inches Hg (1013.0 mb)
Winds: from the WNW (300 degrees) at 6 MPH (5 knots; 2.6 m/s)
Visibility: 6 miles ( 9 km)
Ceiling: 4300 feet AGL
Clouds: few clouds at 1400 feet AGL
few clouds at 2000 feet AGL
broken clouds at 4300 feet AGL
Weather: TS  (thunderstorm)

METAR text: DIAP 160400Z 29006KT 9000 TS FEW014 FEW020CB SCT043 26/24 Q1013 NOSIG
Conditions at: DIAP (ABIDJAN/PORT BOU, CI) observed 0400 UTC 16 June 2019
Temperature: 26.0°C (79°F)
Dewpoint: 24.0°C (75°F) [RH = 89%]
Pressure (altimeter): 29.91 inches Hg (1013.0 mb)
Winds: from the WNW (290 degrees) at 7 MPH (6 knots; 3.1 m/s)
Visibility: 6 miles ( 9 km)
Ceiling: at least 12,000 feet AGL
Clouds: few clouds at 1400 feet AGL
few clouds at 2000 feet AGL
scattered clouds at 4300 feet AGL
Weather: TS  (thunderstorm)

METAR text: DIAP 160330Z 29006KT 9000 TS FEW014 FEW020CB BKN043 26/24 Q1013 NOSIG
Conditions at: DIAP (ABIDJAN/PORT BOU, CI) observed 0330 UTC 16 June 2019
Temperature: 26.0°C (79°F)
Dewpoint: 24.0°C (75°F) [RH = 89%]
Pressure (altimeter): 29.91 inches Hg (1013.0 mb)
Winds: from the WNW (290 degrees) at 7 MPH (6 knots; 3.1 m/s)
Visibility: 6 miles ( 9 km)
Ceiling: 4300 feet AGL
Clouds: few clouds at 1400 feet AGL
few clouds at 2000 feet AGL
broken clouds at 4300 feet AGL
Weather: TS  (thunderstorm)

METAR text: DIAP 160300Z 29006KT 9000 TS FEW014 FEW020CB BKN043 27/25 Q1013 NOSIG
Conditions at: DIAP (ABIDJAN/PORT BOU, CI) observed 0300 UTC 16 June 2019
Temperature: 27.0°C (81°F)
Dewpoint: 25.0°C (77°F) [RH = 89%]
Pressure (altimeter): 29.91 inches Hg (1013.0 mb)
Winds: from the WNW (290 degrees) at 7 MPH (6 knots; 3.1 m/s)
Visibility: 6 miles ( 9 km)
Ceiling: 4300 feet AGL
Clouds: few clouds at 1400 feet AGL
few clouds at 2000 feet AGL
broken clouds at 4300 feet AGL
Weather: TS  (thunderstorm)

METAR text: DIAP 160230Z 28005KT 9000 TS FEW012 FEW020CB BKN024 27/24 Q1014 NOSIG
Conditions at: DIAP (ABIDJAN/PORT BOU, CI) observed 0230 UTC 16 June 2019
Temperature: 27.0°C (81°F)
Dewpoint: 24.0°C (75°F) [RH = 84%]
Pressure (altimeter): 29.94 inches Hg (1014.0 mb)
Winds: from the W (280 degrees) at 6 MPH (5 knots; 2.6 m/s)
Visibility: 6 miles ( 9 km)
Ceiling: 2400 feet AGL
Clouds: few clouds at 1200 feet AGL
few clouds at 2000 feet AGL
broken clouds at 2400 feet AGL
Weather: TS  (thunderstorm)

METAR text: DIAP 160200Z 27004KT 9000 TS FEW012 FEW020CB SCT043 27/24 Q1014 BCMG NSW
Conditions at: DIAP (ABIDJAN/PORT BOU, CI) observed 0200 UTC 16 June 2019
Temperature: 27.0°C (81°F)
Dewpoint: 24.0°C (75°F) [RH = 84%]
Pressure (altimeter): 29.94 inches Hg (1014.0 mb)
Winds: from the W (270 degrees) at 5 MPH (4 knots; 2.1 m/s)
Visibility: 6 miles ( 9 km)
Ceiling: at least 12,000 feet AGL
Clouds: few clouds at 1200 feet AGL
few clouds at 2000 feet AGL
scattered clouds at 4300 feet AGL
Weather: TS  (thunderstorm)

METAR text: DIAP 160130Z 26007KT 9000 TS FEW012 FEW020CB BKN023 27/25 Q1014 NOSIG
Conditions at: DIAP (ABIDJAN/PORT BOU, CI) observed 0130 UTC 16 June 2019
Temperature: 27.0°C (81°F)
Dewpoint: 25.0°C (77°F) [RH = 89%]
Pressure (altimeter): 29.94 inches Hg (1014.0 mb)
Winds: from the W (260 degrees) at 8 MPH (7 knots; 3.6 m/s)
Visibility: 6 miles ( 9 km)
Ceiling: 2300 feet AGL
Clouds: few clouds at 1200 feet AGL
few clouds at 2000 feet AGL
broken clouds at 2300 feet AGL
Weather: TS  (thunderstorm)

METAR text: DIAP 160100Z 26006KT 9000 FEW012 BKN022 27/24 Q1014 NOSIG
Conditions at: DIAP (ABIDJAN/PORT BOU, CI) observed 0100 UTC 16 June 2019
Temperature: 27.0°C (81°F)
Dewpoint: 24.0°C (75°F) [RH = 84%]
Pressure (altimeter): 29.94 inches Hg (1014.0 mb)
Winds: from the W (260 degrees) at 7 MPH (6 knots; 3.1 m/s)
Visibility: 6 miles ( 9 km)
Ceiling: 2200 feet AGL
Clouds: few clouds at 1200 feet AGL
broken clouds at 2200 feet AGL
Weather: no significant weather observed at this time

METAR text: DIAP 160030Z 26006KT 9000 FEW012 BKN037 27/25 Q1015 NOSIG
Conditions at: DIAP (ABIDJAN/PORT BOU, CI) observed 0030 UTC 16 June 2019
Temperature: 27.0°C (81°F)
Dewpoint: 25.0°C (77°F) [RH = 89%]
Pressure (altimeter): 29.97 inches Hg (1015.0 mb)
Winds: from the W (260 degrees) at 7 MPH (6 knots; 3.1 m/s)
Visibility: 6 miles ( 9 km)
Ceiling: 3700 feet AGL
Clouds: few clouds at 1200 feet AGL
broken clouds at 3700 feet AGL
Weather: no significant weather observed at this time

METAR text: DIAP 160000Z 26005KT 9000 FEW012 SCT041 27/25 Q1016 NOSIG
Conditions at: DIAP (ABIDJAN/PORT BOU, CI) observed 0000 UTC 16 June 2019
Temperature: 27.0°C (81°F)
Dewpoint: 25.0°C (77°F) [RH = 89%]
Pressure (altimeter): 30.00 inches Hg (1016.0 mb)
Winds: from the W (260 degrees) at 6 MPH (5 knots; 2.6 m/s)
Visibility: 6 miles ( 9 km)
Ceiling: at least 12,000 feet AGL
Clouds: few clouds at 1200 feet AGL
scattered clouds at 4100 feet AGL
Weather: no significant weather observed at this time

METAR text: DIAP 152330Z 26005KT 9000 FEW012 BKN035 26/25 Q1016 NOSIG
Conditions at: DIAP (ABIDJAN/PORT BOU, CI) observed 2330 UTC 15 June 2019
Temperature: 26.0°C (79°F)
Dewpoint: 25.0°C (77°F) [RH = 94%]
Pressure (altimeter): 30.00 inches Hg (1016.0 mb)
Winds: from the W (260 degrees) at 6 MPH (5 knots; 2.6 m/s)
Visibility: 6 miles ( 9 km)
Ceiling: 3500 feet AGL
Clouds: few clouds at 1200 feet AGL
broken clouds at 3500 feet AGL
Weather: no significant weather observed at this time

METAR text: DIAP 152300Z 26005KT 230V330 9000 FEW012 26/25 Q1016 NOSIG
Conditions at: DIAP (ABIDJAN/PORT BOU, CI) observed 2300 UTC 15 June 2019
Temperature: 26.0°C (79°F)
Dewpoint: 25.0°C (77°F) [RH = 94%]
Pressure (altimeter): 30.00 inches Hg (1016.0 mb)
Winds: from the W (260 degrees) at 6 MPH (5 knots; 2.6 m/s)
Visibility: 6 miles ( 9 km)
Ceiling: at least 12,000 feet AGL
Clouds: few clouds at 1200 feet AGL
Weather: no significant weather observed at this time

METAR text: DIAP 152230Z 24005KT 9000 FEW012 SCT032 26/25 Q1016 NOSIG
Conditions at: DIAP (ABIDJAN/PORT BOU, CI) observed 2230 UTC 15 June 2019
Temperature: 26.0°C (79°F)
Dewpoint: 25.0°C (77°F) [RH = 94%]
Pressure (altimeter): 30.00 inches Hg (1016.0 mb)
Winds: from the WSW (240 degrees) at 6 MPH (5 knots; 2.6 m/s)
Visibility: 6 miles ( 9 km)
Ceiling: at least 12,000 feet AGL
Clouds: few clouds at 1200 feet AGL
scattered clouds at 3200 feet AGL
Weather: no significant weather observed at this time

METAR text: DIAP 152200Z 24005KT 9000 FEW012 BKN042 26/25 Q1016 NOSIG
Conditions at: DIAP (ABIDJAN/PORT BOU, CI) observed 2200 UTC 15 June 2019
Temperature: 26.0°C (79°F)
Dewpoint: 25.0°C (77°F) [RH = 94%]
Pressure (altimeter): 30.00 inches Hg (1016.0 mb)
Winds: from the WSW (240 degrees) at 6 MPH (5 knots; 2.6 m/s)
Visibility: 6 miles ( 9 km)
Ceiling: 4200 feet AGL
Clouds: few clouds at 1200 feet AGL
broken clouds at 4200 feet AGL
Weather: no significant weather observed at this time

METAR text: DIAP 152130Z 24005KT 9000 FEW012 BKN040 26/25 Q1016 NOSIG
Conditions at: DIAP (ABIDJAN/PORT BOU, CI) observed 2130 UTC 15 June 2019
Temperature: 26.0°C (79°F)
Dewpoint: 25.0°C (77°F) [RH = 94%]
Pressure (altimeter): 30.00 inches Hg (1016.0 mb)
Winds: from the WSW (240 degrees) at 6 MPH (5 knots; 2.6 m/s)
Visibility: 6 miles ( 9 km)
Ceiling: 4000 feet AGL
Clouds: few clouds at 1200 feet AGL
broken clouds at 4000 feet AGL
Weather: no significant weather observed at this time

METAR text: DIAP 152100Z 25006KT 9000 FEW012 BKN034 26/25 Q1015 NOSIG
Conditions at: DIAP (ABIDJAN/PORT BOU, CI) observed 2100 UTC 15 June 2019
Temperature: 26.0°C (79°F)
Dewpoint: 25.0°C (77°F) [RH = 94%]
Pressure (altimeter): 29.97 inches Hg (1015.0 mb)
Winds: from the WSW (250 degrees) at 7 MPH (6 knots; 3.1 m/s)
Visibility: 6 miles ( 9 km)
Ceiling: 3400 feet AGL
Clouds: few clouds at 1200 feet AGL
broken clouds at 3400 feet AGL
Weather: no significant weather observed at this time

METAR text: DIAP 152030Z 25006KT 190V280 9000 FEW012 26/24 Q1015 NOSIG
Conditions at: DIAP (ABIDJAN/PORT BOU, CI) observed 2030 UTC 15 June 2019
Temperature: 26.0°C (79°F)
Dewpoint: 24.0°C (75°F) [RH = 89%]
Pressure (altimeter): 29.97 inches Hg (1015.0 mb)
Winds: from the WSW (250 degrees) at 7 MPH (6 knots; 3.1 m/s)
Visibility: 6 miles ( 9 km)
Ceiling: at least 12,000 feet AGL
Clouds: few clouds at 1200 feet AGL
Weather: no significant weather observed at this time

METAR text: DIAP 152000Z 25007KT 9000 FEW012 SCT038 26/24 Q1015 NOSIG
Conditions at: DIAP (ABIDJAN/PORT BOU, CI) observed 2000 UTC 15 June 2019
Temperature: 26.0°C (79°F)
Dewpoint: 24.0°C (75°F) [RH = 89%]
Pressure (altimeter): 29.97 inches Hg (1015.0 mb)
Winds: from the WSW (250 degrees) at 8 MPH (7 knots; 3.6 m/s)
Visibility: 6 miles ( 9 km)
Ceiling: at least 12,000 feet AGL
Clouds: few clouds at 1200 feet AGL
scattered clouds at 3800 feet AGL
Weather: no significant weather observed at this time

METAR text: DIAP 151930Z 25008KT 8000 FEW012 26/25 Q1014 NOSIG
Conditions at: DIAP (ABIDJAN/PORT BOU, CI) observed 1930 UTC 15 June 2019
Temperature: 26.0°C (79°F)
Dewpoint: 25.0°C (77°F) [RH = 94%]
Pressure (altimeter): 29.94 inches Hg (1014.0 mb)
Winds: from the WSW (250 degrees) at 9 MPH (8 knots; 4.1 m/s)
Visibility: 5 miles ( 8 km)
Ceiling: at least 12,000 feet AGL
Clouds: few clouds at 1200 feet AGL
Weather: no significant weather observed at this time

METAR text: DIAP 151900Z 25007KT 8000 FEW012 26/25 Q1014 NOSIG
Conditions at: DIAP (ABIDJAN/PORT BOU, CI) observed 1900 UTC 15 June 2019
Temperature: 26.0°C (79°F)
Dewpoint: 25.0°C (77°F) [RH = 94%]
Pressure (altimeter): 29.94 inches Hg (1014.0 mb)
Winds: from the WSW (250 degrees) at 8 MPH (7 knots; 3.6 m/s)
Visibility: 5 miles ( 8 km)
Ceiling: at least 12,000 feet AGL
Clouds: few clouds at 1200 feet AGL
Weather: no significant weather observed at this time

METAR text: DIAP 151830Z 25007KT 8000 SCT012 27/25 Q1014 NOSIG
Conditions at: DIAP (ABIDJAN/PORT BOU, CI) observed 1830 UTC 15 June 2019
Temperature: 27.0°C (81°F)
Dewpoint: 25.0°C (77°F) [RH = 89%]
Pressure (altimeter): 29.94 inches Hg (1014.0 mb)
Winds: from the WSW (250 degrees) at 8 MPH (7 knots; 3.6 m/s)
Visibility: 5 miles ( 8 km)
Ceiling: at least 12,000 feet AGL
Clouds: scattered clouds at 1200 feet AGL
Weather: no significant weather observed at this time

METAR text: DIAP 151800Z 25008KT 8000 SCT012 BKN040 27/25 Q1013 NOSIG
Conditions at: DIAP (ABIDJAN/PORT BOU, CI) observed 1800 UTC 15 June 2019
Temperature: 27.0°C (81°F)
Dewpoint: 25.0°C (77°F) [RH = 89%]
Pressure (altimeter): 29.91 inches Hg (1013.0 mb)
Winds: from the WSW (250 degrees) at 9 MPH (8 knots; 4.1 m/s)
Visibility: 5 miles ( 8 km)
Ceiling: 4000 feet AGL
Clouds: scattered clouds at 1200 feet AGL
broken clouds at 4000 feet AGL
Weather: no significant weather observed at this time

METAR text: DIAP 151730Z 25008KT 220V280 8000 SCT012 BKN040 27/25 Q1013 NOSIG
Conditions at: DIAP (ABIDJAN/PORT BOU, CI) observed 1730 UTC 15 June 2019
Temperature: 27.0°C (81°F)
Dewpoint: 25.0°C (77°F) [RH = 89%]
Pressure (altimeter): 29.91 inches Hg (1013.0 mb)
Winds: from the WSW (250 degrees) at 9 MPH (8 knots; 4.1 m/s)
Visibility: 5 miles ( 8 km)
Ceiling: 4000 feet AGL
Clouds: scattered clouds at 1200 feet AGL
broken clouds at 4000 feet AGL
Weather: no significant weather observed at this time

METAR text: DIAP 151700Z 23010KT 8000 SCT015 BKN040 28/25 Q1013 NOSIG
Conditions at: DIAP (ABIDJAN/PORT BOU, CI) observed 1700 UTC 15 June 2019
Temperature: 28.0°C (82°F)
Dewpoint: 25.0°C (77°F) [RH = 84%]
Pressure (altimeter): 29.91 inches Hg (1013.0 mb)
Winds: from the SW (230 degrees) at 12 MPH (10 knots; 5.1 m/s)
Visibility: 5 miles ( 8 km)
Ceiling: 4000 feet AGL
Clouds: scattered clouds at 1500 feet AGL
broken clouds at 4000 feet AGL
Weather: no significant weather observed at this time

METAR text: DIAP 151630Z 22010KT 9999 SCT015 28/25 Q1013 NOSIG
Conditions at: DIAP (ABIDJAN/PORT BOU, CI) observed 1630 UTC 15 June 2019
Temperature: 28.0°C (82°F)
Dewpoint: 25.0°C (77°F) [RH = 84%]
Pressure (altimeter): 29.91 inches Hg (1013.0 mb)
Winds: from the SW (220 degrees) at 12 MPH (10 knots; 5.1 m/s)
Visibility: 6 or more miles (10+ km)
Ceiling: at least 12,000 feet AGL
Clouds: scattered clouds at 1500 feet AGL
Weather: no significant weather observed at this time

METAR text: DIAP 151600Z 23010KT 9999 SCT015 28/25 Q1013 NOSIG
Conditions at: DIAP (ABIDJAN/PORT BOU, CI) observed 1600 UTC 15 June 2019
Temperature: 28.0°C (82°F)
Dewpoint: 25.0°C (77°F) [RH = 84%]
Pressure (altimeter): 29.91 inches Hg (1013.0 mb)
Winds: from the SW (230 degrees) at 12 MPH (10 knots; 5.1 m/s)
Visibility: 6 or more miles (10+ km)
Ceiling: at least 12,000 feet AGL
Clouds: scattered clouds at 1500 feet AGL
Weather: no significant weather observed at this time

METAR text: DIAP 151530Z 21010KT 9999 SCT015 28/25 Q1013 NOSIG
Conditions at: DIAP (ABIDJAN/PORT BOU, CI) observed 1530 UTC 15 June 2019
Temperature: 28.0°C (82°F)
Dewpoint: 25.0°C (77°F) [RH = 84%]
Pressure (altimeter): 29.91 inches Hg (1013.0 mb)
Winds: from the SSW (210 degrees) at 12 MPH (10 knots; 5.1 m/s)
Visibility: 6 or more miles (10+ km)
Ceiling: at least 12,000 feet AGL
Clouds: scattered clouds at 1500 feet AGL
Weather: no significant weather observed at this time

METAR text: DIAP 151500Z 22011KT 9999 SCT015 28/25 Q1013 NOSIG
Conditions at: DIAP (ABIDJAN/PORT BOU, CI) observed 1500 UTC 15 June 2019
Temperature: 28.0°C (82°F)
Dewpoint: 25.0°C (77°F) [RH = 84%]
Pressure (altimeter): 29.91 inches Hg (1013.0 mb)
Winds: from the SW (220 degrees) at 13 MPH (11 knots; 5.7 m/s)
Visibility: 6 or more miles (10+ km)
Ceiling: at least 12,000 feet AGL
Clouds: scattered clouds at 1500 feet AGL
Weather: no significant weather observed at this time

METAR text: DIAP 151430Z 22010KT 190V260 9999 SCT015 29/25 Q1013 NOSIG
Conditions at: DIAP (ABIDJAN/PORT BOU, CI) observed 1430 UTC 15 June 2019
Temperature: 29.0°C (84°F)
Dewpoint: 25.0°C (77°F) [RH = 79%]
Pressure (altimeter): 29.91 inches Hg (1013.0 mb)
Winds: from the SW (220 degrees) at 12 MPH (10 knots; 5.1 m/s)
Visibility: 6 or more miles (10+ km)
Ceiling: at least 12,000 feet AGL
Clouds: scattered clouds at 1500 feet AGL
Weather: no significant weather observed at this time

METAR text: DIAP 151400Z 22009KT 9999 SCT015 28/24 Q1013 NOSIG
Conditions at: DIAP (ABIDJAN/PORT BOU, CI) observed 1400 UTC 15 June 2019
Temperature: 28.0°C (82°F)
Dewpoint: 24.0°C (75°F) [RH = 79%]
Pressure (altimeter): 29.91 inches Hg (1013.0 mb)
Winds: from the SW (220 degrees) at 10 MPH (9 knots; 4.6 m/s)
Visibility: 6 or more miles (10+ km)
Ceiling: at least 12,000 feet AGL
Clouds: scattered clouds at 1500 feet AGL
Weather: no significant weather observed at this time

METAR text: DIAP 151330Z 22012KT 9999 SCT015 FEW020CB 29/25 Q1014 NOSIG
Conditions at: DIAP (ABIDJAN/PORT BOU, CI) observed 1330 UTC 15 June 2019
Temperature: 29.0°C (84°F)
Dewpoint: 25.0°C (77°F) [RH = 79%]
Pressure (altimeter): 29.94 inches Hg (1014.0 mb)
Winds: from the SW (220 degrees) at 14 MPH (12 knots; 6.2 m/s)
Visibility: 6 or more miles (10+ km)
Ceiling: at least 12,000 feet AGL
Clouds: scattered clouds at 1500 feet AGL
few clouds at 2000 feet AGL
Weather: no significant weather observed at this time

METAR text: DIAP 151300Z 21010KT 9999 SCT015 FEW020CB 29/24 Q1014 NOSIG
Conditions at: DIAP (ABIDJAN/PORT BOU, CI) observed 1300 UTC 15 June 2019
Temperature: 29.0°C (84°F)
Dewpoint: 24.0°C (75°F) [RH = 74%]
Pressure (altimeter): 29.94 inches Hg (1014.0 mb)
Winds: from the SSW (210 degrees) at 12 MPH (10 knots; 5.1 m/s)
Visibility: 6 or more miles (10+ km)
Ceiling: at least 12,000 feet AGL
Clouds: scattered clouds at 1500 feet AGL
few clouds at 2000 feet AGL
Weather: no significant weather observed at this time

METAR text: DIAP 151230Z 22011KT 9999 SCT015 28/24 Q1015 NOSIG
Conditions at: DIAP (ABIDJAN/PORT BOU, CI) observed 1230 UTC 15 June 2019
Temperature: 28.0°C (82°F)
Dewpoint: 24.0°C (75°F) [RH = 79%]
Pressure (altimeter): 29.97 inches Hg (1015.0 mb)
Winds: from the SW (220 degrees) at 13 MPH (11 knots; 5.7 m/s)
Visibility: 6 or more miles (10+ km)
Ceiling: at least 12,000 feet AGL
Clouds: scattered clouds at 1500 feet AGL
Weather: no significant weather observed at this time

METAR text: DIAP 151200Z 22008KT 180V240 9999 SCT015 28/24 Q1015 NOSIG
Conditions at: DIAP (ABIDJAN/PORT BOU, CI) observed 1200 UTC 15 June 2019
Temperature: 28.0°C (82°F)
Dewpoint: 24.0°C (75°F) [RH = 79%]
Pressure (altimeter): 29.97 inches Hg (1015.0 mb)
Winds: from the SW (220 degrees) at 9 MPH (8 knots; 4.1 m/s)
Visibility: 6 or more miles (10+ km)
Ceiling: at least 12,000 feet AGL
Clouds: scattered clouds at 1500 feet AGL
Weather: no significant weather observed at this time

METAR text: DIAP 151130Z 22010KT 9999 SCT015 28/25 Q1015 NOSIG
Conditions at: DIAP (ABIDJAN/PORT BOU, CI) observed 1130 UTC 15 June 2019
Temperature: 28.0°C (82°F)
Dewpoint: 25.0°C (77°F) [RH = 84%]
Pressure (altimeter): 29.97 inches Hg (1015.0 mb)
Winds: from the SW (220 degrees) at 12 MPH (10 knots; 5.1 m/s)
Visibility: 6 or more miles (10+ km)
Ceiling: at least 12,000 feet AGL
Clouds: scattered clouds at 1500 feet AGL
Weather: no significant weather observed at this time

METAR text: DIAP 151100Z 22008KT 9999 SCT015 28/25 Q1015 NOSIG
Conditions at: DIAP (ABIDJAN/PORT BOU, CI) observed 1100 UTC 15 June 2019
Temperature: 28.0°C (82°F)
Dewpoint: 25.0°C (77°F) [RH = 84%]
Pressure (altimeter): 29.97 inches Hg (1015.0 mb)
Winds: from the SW (220 degrees) at 9 MPH (8 knots; 4.1 m/s)
Visibility: 6 or more miles (10+ km)
Ceiling: at least 12,000 feet AGL
Clouds: scattered clouds at 1500 feet AGL
Weather: no significant weather observed at this time

METAR text: DIAP 151030Z 22009KT 8000 SCT012 BKN040 27/25 Q1015 NOSIG
Conditions at: DIAP (ABIDJAN/PORT BOU, CI) observed 1030 UTC 15 June 2019
Temperature: 27.0°C (81°F)
Dewpoint: 25.0°C (77°F) [RH = 89%]
Pressure (altimeter): 29.97 inches Hg (1015.0 mb)
Winds: from the SW (220 degrees) at 10 MPH (9 knots; 4.6 m/s)
Visibility: 5 miles ( 8 km)
Ceiling: 4000 feet AGL
Clouds: scattered clouds at 1200 feet AGL
broken clouds at 4000 feet AGL
Weather: no significant weather observed at this time

METAR text: DIAP 151000Z 20008KT 7000 -RA SCT012 BKN040 27/26 Q1015 NOSIG
Conditions at: DIAP (ABIDJAN/PORT BOU, CI) observed 1000 UTC 15 June 2019
Temperature: 27.0°C (81°F)
Dewpoint: 26.0°C (79°F) [RH = 94%]
Pressure (altimeter): 29.97 inches Hg (1015.0 mb)
Winds: from the SSW (200 degrees) at 9 MPH (8 knots; 4.1 m/s)
Visibility: 4 miles ( 7 km)
Ceiling: 4000 feet AGL
Clouds: scattered clouds at 1200 feet AGL
broken clouds at 4000 feet AGL
Weather: -RA  (light rain)

METAR text: DIAP 150930Z 20006KT 7000 SCT012 BKN040 27/25 Q1015 NOSIG
Conditions at: DIAP (ABIDJAN/PORT BOU, CI) observed 0930 UTC 15 June 2019
Temperature: 27.0°C (81°F)
Dewpoint: 25.0°C (77°F) [RH = 89%]
Pressure (altimeter): 29.97 inches Hg (1015.0 mb)
Winds: from the SSW (200 degrees) at 7 MPH (6 knots; 3.1 m/s)
Visibility: 4 miles ( 7 km)
Ceiling: 4000 feet AGL
Clouds: scattered clouds at 1200 feet AGL
broken clouds at 4000 feet AGL
Weather: no significant weather observed at this time

METAR text: DIAP 150900Z 20006KT 7000 SCT012 BKN040 26/25 Q1015 NOSIG
Conditions at: DIAP (ABIDJAN/PORT BOU, CI) observed 0900 UTC 15 June 2019
Temperature: 26.0°C (79°F)
Dewpoint: 25.0°C (77°F) [RH = 94%]
Pressure (altimeter): 29.97 inches Hg (1015.0 mb)
Winds: from the SSW (200 degrees) at 7 MPH (6 knots; 3.1 m/s)
Visibility: 4 miles ( 7 km)
Ceiling: 4000 feet AGL
Clouds: scattered clouds at 1200 feet AGL
broken clouds at 4000 feet AGL
Weather: no significant weather observed at this time

METAR text: DIAP 150830Z 22005KT 7000 SCT012 BKN040 26/25 Q1015 NOSIG
Conditions at: DIAP (ABIDJAN/PORT BOU, CI) observed 0830 UTC 15 June 2019
Temperature: 26.0°C (79°F)
Dewpoint: 25.0°C (77°F) [RH = 94%]
Pressure (altimeter): 29.97 inches Hg (1015.0 mb)
Winds: from the SW (220 degrees) at 6 MPH (5 knots; 2.6 m/s)
Visibility: 4 miles ( 7 km)
Ceiling: 4000 feet AGL
Clouds: scattered clouds at 1200 feet AGL
broken clouds at 4000 feet AGL
Weather: no significant weather observed at this time

METAR text: DIAP 150800Z 24007KT 7000 FEW012 BKN040 26/25 Q1014 NOSIG
Conditions at: DIAP (ABIDJAN/PORT BOU, CI) observed 0800 UTC 15 June 2019
Temperature: 26.0°C (79°F)
Dewpoint: 25.0°C (77°F) [RH = 94%]
Pressure (altimeter): 29.94 inches Hg (1014.0 mb)
Winds: from the WSW (240 degrees) at 8 MPH (7 knots; 3.6 m/s)
Visibility: 4 miles ( 7 km)
Ceiling: 4000 feet AGL
Clouds: few clouds at 1200 feet AGL
broken clouds at 4000 feet AGL
Weather: no significant weather observed at this time

METAR text: DIAP 150730Z 25006KT 210V270 7000 FEW011 BKN040 26/25 Q1014 NOSIG
Conditions at: DIAP (ABIDJAN/PORT BOU, CI) observed 0730 UTC 15 June 2019
Temperature: 26.0°C (79°F)
Dewpoint: 25.0°C (77°F) [RH = 94%]
Pressure (altimeter): 29.94 inches Hg (1014.0 mb)
Winds: from the WSW (250 degrees) at 7 MPH (6 knots; 3.1 m/s)
Visibility: 4 miles ( 7 km)
Ceiling: 4000 feet AGL
Clouds: few clouds at 1100 feet AGL
broken clouds at 4000 feet AGL
Weather: no significant weather observed at this time

METAR text: DIAP 150700Z 20006KT 7000 FEW011 OVC040 26/25 Q1014 NOSIG
Conditions at: DIAP (ABIDJAN/PORT BOU, CI) observed 0700 UTC 15 June 2019
Temperature: 26.0°C (79°F)
Dewpoint: 25.0°C (77°F) [RH = 94%]
Pressure (altimeter): 29.94 inches Hg (1014.0 mb)
Winds: from the SSW (200 degrees) at 7 MPH (6 knots; 3.1 m/s)
Visibility: 4 miles ( 7 km)
Ceiling: 4000 feet AGL
Clouds: few clouds at 1100 feet AGL
overcast cloud deck at 4000 feet AGL
Weather: no significant weather observed at this time

METAR text: DIAP 150630Z 18004KT 6000 -RA SCT011 OVC040 26/25 Q1013 TEMPO 4000 RA
Conditions at: DIAP (ABIDJAN/PORT BOU, CI) observed 0630 UTC 15 June 2019
Temperature: 26.0°C (79°F)
Dewpoint: 25.0°C (77°F) [RH = 94%]
Pressure (altimeter): 29.91 inches Hg (1013.0 mb)
Winds: from the S (180 degrees) at 5 MPH (4 knots; 2.1 m/s)
Visibility: 4 miles ( 6 km)
Ceiling: 4000 feet AGL
Clouds: scattered clouds at 1100 feet AGL
overcast cloud deck at 4000 feet AGL
Weather: -RA  (light rain)

METAR text: DIAP 150600Z 20004KT 160V250 7000 FEW011 BKN040 26/25 Q1013 TEMPO 4000 RA
Conditions at: DIAP (ABIDJAN/PORT BOU, CI) observed 0600 UTC 15 June 2019
Temperature: 26.0°C (79°F)
Dewpoint: 25.0°C (77°F) [RH = 94%]
Pressure (altimeter): 29.91 inches Hg (1013.0 mb)
Winds: from the SSW (200 degrees) at 5 MPH (4 knots; 2.1 m/s)
Visibility: 4 miles ( 7 km)
Ceiling: 4000 feet AGL
Clouds: few clouds at 1100 feet AGL
broken clouds at 4000 feet AGL
Weather: no significant weather observed at this time

METAR text: DIAP 150530Z 22003KT 9000 FEW011 BKN040 25/25 Q1013 NOSIG
Conditions at: DIAP (ABIDJAN/PORT BOU, CI) observed 0530 UTC 15 June 2019
Temperature: 25.0°C (77°F)
Dewpoint: 25.0°C (77°F) [RH = 100%]
Pressure (altimeter): 29.91 inches Hg (1013.0 mb)
Winds: from the SW (220 degrees) at 3 MPH (3 knots; 1.5 m/s)
Visibility: 6 miles ( 9 km)
Ceiling: 4000 feet AGL
Clouds: few clouds at 1100 feet AGL
broken clouds at 4000 feet AGL
Weather: no significant weather observed at this time

METAR text: DIAP 150500Z 22004KT 9000 FEW011 25/25 Q1013 NOSIG
Conditions at: DIAP (ABIDJAN/PORT BOU, CI) observed 0500 UTC 15 June 2019
Temperature: 25.0°C (77°F)
Dewpoint: 25.0°C (77°F) [RH = 100%]
Pressure (altimeter): 29.91 inches Hg (1013.0 mb)
Winds: from the SW (220 degrees) at 5 MPH (4 knots; 2.1 m/s)
Visibility: 6 miles ( 9 km)
Ceiling: at least 12,000 feet AGL
Clouds: few clouds at 1100 feet AGL
Weather: no significant weather observed at this time

Forecast for: AMD
Text: TAF AMD DIAP 161500Z 1615/1718 VRB04KT 6000 FEW011 SCT040
Forecast period: 1500 UTC 16 June 2019 to 1800 UTC 17 June 2019
Forecast type: FROM: standard forecast or significant change
Winds: variable direction winds at 5 MPH (4 knots; 2.1 m/s)
Visibility: 4 miles (6 km)
Ceiling: at least 12,000 feet AGL
Clouds: few clouds at 1100 feet AGL
scattered clouds at 4000 feet AGL
Weather: no significant weather forecast for this period
Text: TEMPO 1622/1704 4000 RA BKN010 BKN030
Forecast period: 2200 UTC 16 June 2019 to 0400 UTC 17 June 2019
Forecast type: TEMPORARY: The following changes expected for less than half the time period
Visibility: 2.49 miles (4.01 km)
Ceiling: 1000 feet AGL
Clouds: broken clouds at 1000 feet AGL
broken clouds at 3000 feet AGL
Weather: RA  (moderate rain)